sensor_id;sensor_type;location;lat;lon;timestamp;temperature;humidity
46335;DHT22;32051;48.882;9.210;2023-04-06T08:12:07;7.60;99.90
46335;DHT22;32051;48.882;9.210;2023-04-06T08:14:32;7.70;99.90
46335;DHT22;32051;48.882;9.210;2023-04-06T08:16:59;7.80;99.90
46335;DHT22;32051;48.882;9.210;2023-04-06T08:19:25;7.90;99.90
46335;DHT22;32051;48.882;9.210;2023-04-06T08:21:50;8.00;99.90
46335;DHT22;32051;48.882;9.210;2023-04-06T08:24:16;8.10;99.90
46335;DHT22;32051;48.882;9.210;2023-04-06T08:26:42;8.30;99.90
46335;DHT22;32051;48.882;9.210;2023-04-06T08:29:08;8.40;99.90
46335;DHT22;32051;48.882;9.210;2023-04-06T08:31:35;8.60;99.90
46335;DHT22;32051;48.882;9.210;2023-04-06T08:34:03;8.80;99.90
46335;DHT22;32051;48.882;9.210;2023-04-06T08:36:29;9.00;99.90
46335;DHT22;32051;48.882;9.210;2023-04-06T08:38:54;9.20;99.90
46335;DHT22;32051;48.882;9.210;2023-04-06T08:41:20;9.30;99.90
46335;DHT22;32051;48.882;9.210;2023-04-06T08:43:47;9.50;99.90
46335;DHT22;32051;48.882;9.210;2023-04-06T08:46:14;9.60;99.90
46335;DHT22;32051;48.882;9.210;2023-04-06T08:48:42;9.60;93.50
46335;DHT22;32051;48.882;9.210;2023-04-06T08:51:09;9.70;92.60
46335;DHT22;32051;48.882;9.210;2023-04-06T08:53:36;9.80;94.10
46335;DHT22;32051;48.882;9.210;2023-04-06T08:56:02;9.90;93.50
46335;DHT22;32051;48.882;9.210;2023-04-06T08:58:35;10.00;92.40
46335;DHT22;32051;48.882;9.210;2023-04-06T09:01:07;10.20;92.60
46335;DHT22;32051;48.882;9.210;2023-04-06T09:03:38;10.30;91.20
46335;DHT22;32051;48.882;9.210;2023-04-06T09:06:07;10.50;92.00
46335;DHT22;32051;48.882;9.210;2023-04-06T09:08:38;10.80;93.80
46335;DHT22;32051;48.882;9.210;2023-04-06T09:11:05;11.00;95.70
46335;DHT22;32051;48.882;9.210;2023-04-06T09:13:31;11.10;95.30
46335;DHT22;32051;48.882;9.210;2023-04-06T09:16:01;11.20;96.00
46335;DHT22;32051;48.882;9.210;2023-04-06T09:18:29;11.30;97.20
46335;DHT22;32051;48.882;9.210;2023-04-06T09:21:05;11.40;98.70
46335;DHT22;32051;48.882;9.210;2023-04-06T09:23:32;11.40;96.50
46335;DHT22;32051;48.882;9.210;2023-04-06T09:26:14;11.50;96.80
46335;DHT22;32051;48.882;9.210;2023-04-06T09:28:54;11.60;99.90
46335;DHT22;32051;48.882;9.210;2023-04-06T09:31:24;11.70;99.90
46335;DHT22;32051;48.882;9.210;2023-04-06T09:33:50;11.80;97.10
46335;DHT22;32051;48.882;9.210;2023-04-06T09:36:17;12.00;99.90
46335;DHT22;32051;48.882;9.210;2023-04-06T09:38:54;12.10;99.70
46335;DHT22;32051;48.882;9.210;2023-04-06T09:41:28;12.20;99.50
46335;DHT22;32051;48.882;9.210;2023-04-06T09:46:32;12.30;98.60
46335;DHT22;32051;48.882;9.210;2023-04-06T09:48:59;12.30;99.90
46335;DHT22;32051;48.882;9.210;2023-04-06T09:51:26;12.40;99.90
46335;DHT22;32051;48.882;9.210;2023-04-06T10:48:53;14.20;99.90
46335;DHT22;32051;48.882;9.210;2023-04-06T11:08:53;18.00;95.60
46335;DHT22;32051;48.882;9.210;2023-04-06T11:13:49;18.70;60.30
46335;DHT22;32051;48.882;9.210;2023-04-06T11:16:25;18.90;62.90
46335;DHT22;32051;48.882;9.210;2023-04-06T11:18:54;19.30;62.30
46335;DHT22;32051;48.882;9.210;2023-04-06T11:21:38;19.60;60.00
46335;DHT22;32051;48.882;9.210;2023-04-06T11:29:06;20.10;58.00
46335;DHT22;32051;48.882;9.210;2023-04-06T11:31:38;20.50;58.80
46335;DHT22;32051;48.882;9.210;2023-04-06T11:36:35;20.90;55.50
46335;DHT22;32051;48.882;9.210;2023-04-06T11:39:03;20.90;55.90
46335;DHT22;32051;48.882;9.210;2023-04-06T11:41:29;20.80;57.00
46335;DHT22;32051;48.882;9.210;2023-04-06T11:43:55;20.80;59.80
46335;DHT22;32051;48.882;9.210;2023-04-06T11:46:21;20.50;53.20
46335;DHT22;32051;48.882;9.210;2023-04-06T11:48:47;20.30;55.90
46335;DHT22;32051;48.882;9.210;2023-04-06T11:51:21;20.30;55.70
46335;DHT22;32051;48.882;9.210;2023-04-06T11:53:48;20.30;53.30
46335;DHT22;32051;48.882;9.210;2023-04-06T12:01:16;20.90;53.60
46335;DHT22;32051;48.882;9.210;2023-04-06T12:03:42;20.90;52.60
46335;DHT22;32051;48.882;9.210;2023-04-06T12:06:07;21.10;54.10
46335;DHT22;32051;48.882;9.210;2023-04-06T12:08:33;21.80;86.20
46335;DHT22;32051;48.882;9.210;2023-04-06T12:30:46;23.00;87.90
46335;DHT22;32051;48.882;9.210;2023-04-06T13:48:46;22.00;69.00
46335;DHT22;32051;48.882;9.210;2023-04-06T13:58:33;20.20;59.60
46335;DHT22;32051;48.882;9.210;2023-04-06T14:01:06;20.10;48.60
46335;DHT22;32051;48.882;9.210;2023-04-06T14:03:33;19.60;49.50
46335;DHT22;32051;48.882;9.210;2023-04-06T14:05:59;19.40;48.20
46335;DHT22;32051;48.882;9.210;2023-04-06T14:08:25;19.10;48.20
46335;DHT22;32051;48.882;9.210;2023-04-06T14:10:51;19.00;50.00
46335;DHT22;32051;48.882;9.210;2023-04-06T14:13:16;18.90;50.90
46335;DHT22;32051;48.882;9.210;2023-04-06T14:18:08;18.80;48.80
46335;DHT22;32051;48.882;9.210;2023-04-06T14:20:34;18.70;50.20
46335;DHT22;32051;48.882;9.210;2023-04-06T14:23:01;18.60;50.40
46335;DHT22;32051;48.882;9.210;2023-04-06T14:25:27;18.50;50.60
46335;DHT22;32051;48.882;9.210;2023-04-06T14:27:53;18.30;50.10
46335;DHT22;32051;48.882;9.210;2023-04-06T14:30:18;18.00;50.60
46335;DHT22;32051;48.882;9.210;2023-04-06T14:54:42;16.70;89.90
46335;DHT22;32051;48.882;9.210;2023-04-06T16:30:13;14.10;55.10
46335;DHT22;32051;48.882;9.210;2023-04-06T16:32:39;14.00;56.00
46335;DHT22;32051;48.882;9.210;2023-04-06T16:35:05;13.90;57.90
46335;DHT22;32051;48.882;9.210;2023-04-06T16:37:31;13.80;56.90
46335;DHT22;32051;48.882;9.210;2023-04-06T16:39:57;13.70;58.10
46335;DHT22;32051;48.882;9.210;2023-04-06T16:42:22;13.60;56.60
46335;DHT22;32051;48.882;9.210;2023-04-06T16:44:48;13.50;58.50
46335;DHT22;32051;48.882;9.210;2023-04-06T16:47:15;13.40;59.40
46335;DHT22;32051;48.882;9.210;2023-04-06T16:59:29;12.90;62.80
46335;DHT22;32051;48.882;9.210;2023-04-06T17:01:55;12.80;63.20
46335;DHT22;32051;48.882;9.210;2023-04-06T17:04:21;12.70;63.10
46335;DHT22;32051;48.882;9.210;2023-04-06T17:06:48;12.60;63.70
46335;DHT22;32051;48.882;9.210;2023-04-06T17:09:14;12.60;64.30
46335;DHT22;32051;48.882;9.210;2023-04-06T17:11:40;12.50;63.80
46335;DHT22;32051;48.882;9.210;2023-04-06T17:14:08;12.40;61.70
46335;DHT22;32051;48.882;9.210;2023-04-06T17:16:34;12.30;60.90
46335;DHT22;32051;48.882;9.210;2023-04-06T17:50:51;11.90;79.10
46335;DHT22;32051;48.882;9.210;2023-04-06T17:53:16;11.80;81.10
46335;DHT22;32051;48.882;9.210;2023-04-06T17:55:45;11.80;88.10
46335;DHT22;32051;48.882;9.210;2023-04-06T17:58:11;11.70;90.10
46335;DHT22;32051;48.882;9.210;2023-04-06T18:00:36;11.70;92.00
46335;DHT22;32051;48.882;9.210;2023-04-06T18:03:02;11.70;91.80
46335;DHT22;32051;48.882;9.210;2023-04-06T18:05:28;11.70;92.20
46335;DHT22;32051;48.882;9.210;2023-04-06T18:07:53;11.60;91.40
46335;DHT22;32051;48.882;9.210;2023-04-06T18:10:22;11.60;90.40
46335;DHT22;32051;48.882;9.210;2023-04-06T18:12:48;11.50;90.80
46335;DHT22;32051;48.882;9.210;2023-04-06T18:15:14;11.60;91.30
46335;DHT22;32051;48.882;9.210;2023-04-06T18:17:43;11.60;91.50
46335;DHT22;32051;48.882;9.210;2023-04-06T18:20:12;11.60;91.50
46335;DHT22;32051;48.882;9.210;2023-04-06T18:22:37;11.50;94.20
46335;DHT22;32051;48.882;9.210;2023-04-06T18:25:04;11.40;95.80
46335;DHT22;32051;48.882;9.210;2023-04-06T18:27:30;11.40;96.10
46335;DHT22;32051;48.882;9.210;2023-04-06T18:29:56;11.30;96.80
46335;DHT22;32051;48.882;9.210;2023-04-06T18:32:24;11.30;96.50
46335;DHT22;32051;48.882;9.210;2023-04-06T18:34:55;11.30;96.80
46335;DHT22;32051;48.882;9.210;2023-04-06T18:37:25;11.30;96.90
46335;DHT22;32051;48.882;9.210;2023-04-06T18:39:51;11.30;97.50
46335;DHT22;32051;48.882;9.210;2023-04-06T18:42:18;11.30;97.10
46335;DHT22;32051;48.882;9.210;2023-04-06T18:44:44;11.30;96.80
46335;DHT22;32051;48.882;9.210;2023-04-06T18:47:10;11.30;96.90
46335;DHT22;32051;48.882;9.210;2023-04-06T18:49:36;11.30;96.80
46335;DHT22;32051;48.882;9.210;2023-04-06T18:52:04;11.30;97.30
46335;DHT22;32051;48.882;9.210;2023-04-06T18:54:30;11.30;96.90
46335;DHT22;32051;48.882;9.210;2023-04-06T18:56:56;11.30;97.10
46335;DHT22;32051;48.882;9.210;2023-04-06T21:08:58;10.00;83.50
46335;DHT22;32051;48.882;9.210;2023-04-06T21:11:23;10.00;85.50
46335;DHT22;32051;48.882;9.210;2023-04-06T21:13:50;10.00;87.00
46335;DHT22;32051;48.882;9.210;2023-04-06T21:16:16;9.90;86.90
46335;DHT22;32051;48.882;9.210;2023-04-06T21:18:41;9.90;87.70
46335;DHT22;32051;48.882;9.210;2023-04-06T21:21:07;9.80;88.00
46335;DHT22;32051;48.882;9.210;2023-04-06T21:23:33;9.70;89.10
46335;DHT22;32051;48.882;9.210;2023-04-06T21:25:59;9.70;90.40
46335;DHT22;32051;48.882;9.210;2023-04-06T21:28:27;9.60;91.20
46335;DHT22;32051;48.882;9.210;2023-04-06T21:30:53;9.50;92.00
46335;DHT22;32051;48.882;9.210;2023-04-06T21:33:19;9.40;93.20
46335;DHT22;32051;48.882;9.210;2023-04-06T21:35:45;9.20;94.70
46335;DHT22;32051;48.882;9.210;2023-04-06T21:38:10;9.20;95.90
46335;DHT22;32051;48.882;9.210;2023-04-06T21:40:36;8.90;99.60
46335;DHT22;32051;48.882;9.210;2023-04-06T21:43:02;8.90;99.60
46335;DHT22;32051;48.882;9.210;2023-04-06T21:45:28;8.80;99.90
46335;DHT22;32051;48.882;9.210;2023-04-06T21:47:54;8.60;99.90
46335;DHT22;32051;48.882;9.210;2023-04-06T21:50:20;8.50;99.90
46335;DHT22;32051;48.882;9.210;2023-04-06T21:52:46;8.40;99.90
46335;DHT22;32051;48.882;9.210;2023-04-06T21:55:11;8.30;99.90
46335;DHT22;32051;48.882;9.210;2023-04-06T21:57:37;8.20;99.90
